KIAH/IAH METAR and TAF weather

Enter ICAO airport designator
Station Type Date Time Source
KIAH METAR 2020/04/06 15:53 UTC NOAA

KIAH 061553Z 14012KT 10SM BKN020 BKN048 BKN190 BKN250 24/19 A3002 RMK AO2 SLP166 T02440189


Station Type Date Time Source
KIAH Decoded METAR 2020/04/06 15:53 UTC NOAA

HOUSTON INTERCONTINENTAL, TX, United States (KIAH) 30-00N 095-22W 36M
Apr 06, 2020 - 11:53 AM EDT / 2020.04.06 1553 UTC
Wind: from the SE (140 degrees) at 14 MPH (12 KT):0
Visibility: 10 mile(s):0
Sky conditions: mostly cloudy
Temperature: 75.9 F (24.4 C)
Dew Point: 66.0 F (18.9 C)
Relative Humidity: 71%
Pressure (altimeter): 30.02 in. Hg (1016 hPa)
ob: KIAH 061553Z 14012KT 10SM BKN020 BKN048 BKN190 BKN250 24/19 A3002 RMK AO2 SLP166 T02440189
cycle: 16

Station Type Date Time Source
KIAH TAF 2020/04/06 15:12 UTC NOAA

TAF KIAH 061510Z 0615/0718 10007KT P6SM SCT020 BKN040
TEMPO 0615/0618 BKN019
FM061800 13008KT P6SM VCSH BKN035
FM062200 14009KT P6SM BKN025
FM070100 13006KT P6SM OVC015
FM070600 14003KT 4SM BR OVC007
FM071500 23006KT 6SM BR BKN015

Example: see airport list